Time,TemperatureF,DewpointF,PressureIn,WindDirection,WindDirectionDegrees,WindSpeedMPH,WindSpeedGustMPH,Humidity,HourlyPrecipIn,Conditions,Clouds,dailyrainin,SoftwareType,DateUTC
2013-01-21 00:03:00,17.0,-99.9,-100.00,West,264,2.0,-999.0,-999,0.00,,,0.00,,2013-01-21 06:03:00,
2013-01-21 00:13:00,17.0,-99.9,-100.00,West,264,2.0,-999.0,-999,0.00,,,0.00,,2013-01-21 06:13:00,
2013-01-21 00:24:00,17.0,-99.9,-100.00,West,264,2.0,-999.0,-999,0.00,,,0.00,,2013-01-21 06:24:00,
2013-01-21 00:33:00,16.0,-99.9,-100.00,West,276,4.0,-999.0,-999,0.00,,,0.00,,2013-01-21 06:33:00,
2013-01-21 00:43:00,16.0,-99.9,-100.00,West,276,4.0,-999.0,-999,0.00,,,0.00,,2013-01-21 06:43:00,
2013-01-21 00:53:00,16.0,-99.9,-100.00,West,276,4.0,-999.0,-999,0.00,,,0.00,,2013-01-21 06:53:00,
2013-01-21 01:03:00,16.0,-99.9,-100.00,WNW,290,4.0,-999.0,-999,0.00,,,0.00,,2013-01-21 07:03:00,
2013-01-21 01:13:00,16.0,-99.9,-100.00,WNW,290,4.0,-999.0,-999,0.00,,,0.00,,2013-01-21 07:13:00,
2013-01-21 01:23:00,16.0,-99.9,-100.00,WNW,290,4.0,-999.0,-999,0.00,,,0.00,,2013-01-21 07:23:00,
2013-01-21 01:33:00,15.0,-99.9,-100.00,WNW,293,6.0,-999.0,-999,0.00,,,0.00,,2013-01-21 07:33:00,
2013-01-21 01:43:00,15.0,-99.9,-100.00,WNW,293,6.0,-999.0,-999,0.00,,,0.00,,2013-01-21 07:43:00,
2013-01-21 01:53:00,15.0,-99.9,-100.00,WNW,293,6.0,-999.0,-999,0.00,,,0.00,,2013-01-21 07:53:00,
2013-01-21 02:03:00,15.0,-99.9,-100.00,West,274,5.0,-999.0,-999,0.00,,,0.00,,2013-01-21 08:03:00,
2013-01-21 02:14:00,15.0,-99.9,-100.00,West,274,5.0,-999.0,-999,0.00,,,0.00,,2013-01-21 08:14:00,
2013-01-21 02:23:00,15.0,-99.9,-100.00,West,274,5.0,-999.0,-999,0.00,,,0.00,,2013-01-21 08:23:00,
2013-01-21 02:33:00,15.0,-99.9,-100.00,West,279,7.0,-999.0,-999,0.00,,,0.00,,2013-01-21 08:33:00,
2013-01-21 02:43:00,15.0,-99.9,-100.00,West,279,7.0,-999.0,-999,0.00,,,0.00,,2013-01-21 08:43:00,
2013-01-21 02:53:00,15.0,-99.9,-100.00,West,279,7.0,-999.0,-999,0.00,,,0.00,,2013-01-21 08:53:00,
2013-01-21 03:03:00,15.0,-99.9,-100.00,WNW,289,3.0,-999.0,-999,0.00,,,0.00,,2013-01-21 09:03:00,
2013-01-21 03:13:00,15.0,-99.9,-100.00,WNW,289,3.0,-999.0,-999,0.00,,,0.00,,2013-01-21 09:13:00,
2013-01-21 03:23:00,15.0,-99.9,-100.00,WNW,289,3.0,-999.0,-999,0.00,,,0.00,,2013-01-21 09:23:00,
2013-01-21 03:33:00,14.0,-99.9,-100.00,WNW,297,8.0,-999.0,-999,0.00,,,0.00,,2013-01-21 09:33:00,
2013-01-21 03:43:00,14.0,-99.9,-100.00,WNW,297,8.0,-999.0,-999,0.00,,,0.00,,2013-01-21 09:43:00,
2013-01-21 03:53:00,14.0,-99.9,-100.00,WNW,297,8.0,-999.0,-999,0.00,,,0.00,,2013-01-21 09:53:00,
2013-01-21 04:03:00,15.0,-99.9,-100.00,West,280,4.0,-999.0,-999,0.00,,,0.00,,2013-01-21 10:03:00,
2013-01-21 04:12:00,15.0,-99.9,-100.00,West,280,4.0,-999.0,-999,0.00,,,0.00,,2013-01-21 10:12:00,
2013-01-21 04:23:00,15.0,-99.9,-100.00,West,280,4.0,-999.0,-999,0.00,,,0.00,,2013-01-21 10:23:00,
2013-01-21 04:33:00,14.0,-99.9,-100.00,WNW,290,5.0,-999.0,-999,0.00,,,0.00,,2013-01-21 10:33:00,
2013-01-21 04:43:00,14.0,-99.9,-100.00,WNW,290,5.0,-999.0,-999,0.00,,,0.00,,2013-01-21 10:43:00,
2013-01-21 04:53:00,14.0,-99.9,-100.00,WNW,290,5.0,-999.0,-999,0.00,,,0.00,,2013-01-21 10:53:00,
2013-01-21 05:03:00,14.0,-99.9,-100.00,West,281,6.0,-999.0,-999,0.00,,,0.00,,2013-01-21 11:03:00,
2013-01-21 05:13:00,14.0,-99.9,-100.00,West,281,6.0,-999.0,-999,0.00,,,0.00,,2013-01-21 11:13:00,
2013-01-21 05:23:00,14.0,-99.9,-100.00,West,281,6.0,-999.0,-999,0.00,,,0.00,,2013-01-21 11:23:00,
2013-01-21 05:33:00,14.0,-99.9,-100.00,WNW,285,7.0,-999.0,-999,0.00,,,0.00,,2013-01-21 11:33:00,
2013-01-21 05:43:00,14.0,-99.9,-100.00,WNW,285,7.0,-999.0,-999,0.00,,,0.00,,2013-01-21 11:43:00,
2013-01-21 05:53:00,14.0,-99.9,-100.00,WNW,285,7.0,-999.0,-999,0.00,,,0.00,,2013-01-21 11:53:00,
2013-01-21 06:03:00,14.0,-99.9,-100.00,WNW,295,10.0,-999.0,-999,0.00,,,0.00,,2013-01-21 12:03:00,
2013-01-21 06:12:00,14.0,-99.9,-100.00,WNW,295,10.0,-999.0,-999,0.00,,,0.00,,2013-01-21 12:12:00,
2013-01-21 06:23:00,14.0,-99.9,-100.00,WNW,295,10.0,-999.0,-999,0.00,,,0.00,,2013-01-21 12:23:00,
2013-01-21 06:33:00,13.0,-99.9,-100.00,NW,304,9.0,-999.0,-999,0.00,,,0.00,,2013-01-21 12:33:00,
2013-01-21 06:43:00,13.0,-99.9,-100.00,NW,304,9.0,-999.0,-999,0.00,,,0.00,,2013-01-21 12:43:00,
2013-01-21 06:53:00,13.0,-99.9,-100.00,NW,304,9.0,-999.0,-999,0.00,,,0.00,,2013-01-21 12:53:00,
2013-01-21 07:03:00,13.0,-99.9,-100.00,NW,305,9.0,-999.0,-999,0.00,,,0.00,,2013-01-21 13:03:00,
2013-01-21 07:13:00,13.0,-99.9,-100.00,NW,305,9.0,-999.0,-999,0.00,,,0.00,,2013-01-21 13:13:00,
2013-01-21 07:23:00,13.0,-99.9,-100.00,NW,305,9.0,-999.0,-999,0.00,,,0.00,,2013-01-21 13:23:00,
2013-01-21 07:33:00,12.0,-99.9,-100.00,WNW,288,7.0,-999.0,-999,0.00,,,0.00,,2013-01-21 13:33:00,
2013-01-21 07:43:00,12.0,-99.9,-100.00,WNW,288,7.0,-999.0,-999,0.00,,,0.00,,2013-01-21 13:43:00,
2013-01-21 07:54:00,12.0,-99.9,-100.00,WNW,288,7.0,-999.0,-999,0.00,,,0.00,,2013-01-21 13:54:00,
2013-01-21 08:04:00,10.0,-99.9,-100.00,WNW,287,7.0,-999.0,-999,0.00,,,0.00,,2013-01-21 14:04:00,
2013-01-21 08:13:00,10.0,-99.9,-100.00,WNW,287,7.0,-999.0,-999,0.00,,,0.00,,2013-01-21 14:13:00,
2013-01-21 08:23:00,10.0,-99.9,-100.00,WNW,287,7.0,-999.0,-999,0.00,,,0.00,,2013-01-21 14:23:00,
2013-01-21 08:33:00,10.0,-99.9,-100.00,WNW,299,10.0,-999.0,-999,0.00,,,0.00,,2013-01-21 14:33:00,
2013-01-21 08:43:00,10.0,-99.9,-100.00,WNW,299,10.0,-999.0,-999,0.00,,,0.00,,2013-01-21 14:43:00,
2013-01-21 08:54:00,10.0,-99.9,-100.00,WNW,299,10.0,-999.0,-999,0.00,,,0.00,,2013-01-21 14:54:00,
2013-01-21 09:03:00,11.0,-99.9,-100.00,NW,307,11.0,-999.0,-999,0.00,,,0.00,,2013-01-21 15:03:00,
2013-01-21 09:14:00,11.0,-99.9,-100.00,NW,307,11.0,-999.0,-999,0.00,,,0.00,,2013-01-21 15:14:00,
2013-01-21 09:23:00,11.0,-99.9,-100.00,NW,307,11.0,-999.0,-999,0.00,,,0.00,,2013-01-21 15:23:00,
2013-01-21 09:33:00,11.0,-99.9,-100.00,NW,313,12.0,-999.0,-999,0.00,,,0.00,,2013-01-21 15:33:00,
2013-01-21 09:43:00,11.0,-99.9,-100.00,NW,313,12.0,-999.0,-999,0.00,,,0.00,,2013-01-21 15:43:00,
2013-01-21 09:53:00,11.0,-99.9,-100.00,NW,313,12.0,-999.0,-999,0.00,,,0.00,,2013-01-21 15:53:00,
2013-01-21 10:04:00,11.0,-99.9,-100.00,WNW,288,7.0,-999.0,-999,0.00,,,0.00,,2013-01-21 16:04:00,
2013-01-21 10:13:00,11.0,-99.9,-100.00,WNW,288,7.0,-999.0,-999,0.00,,,0.00,,2013-01-21 16:13:00,
2013-01-21 10:24:00,11.0,-99.9,-100.00,WNW,288,7.0,-999.0,-999,0.00,,,0.00,,2013-01-21 16:24:00,
2013-01-21 10:30:00,12.0,-99.9,-100.00,WNW,301,6.0,-999.0,-999,0.00,,,0.00,,2013-01-21 16:30:00,
2013-01-21 10:34:00,11.0,-99.9,-100.00,NW,306,9.0,-999.0,-999,0.00,,,0.00,,2013-01-21 16:34:00,
2013-01-21 10:44:00,11.0,-99.9,-100.00,NW,306,9.0,-999.0,-999,0.00,,,0.00,,2013-01-21 16:44:00,
2013-01-21 10:53:00,11.0,-99.9,-100.00,NW,306,9.0,-999.0,-999,0.00,,,0.00,,2013-01-21 16:53:00,
2013-01-21 11:03:00,12.0,-99.9,-100.00,WNW,301,6.0,-999.0,-999,0.00,,,0.00,,2013-01-21 17:03:00,
2013-01-21 11:13:00,12.0,-99.9,-100.00,WNW,301,6.0,-999.0,-999,0.00,,,0.00,,2013-01-21 17:13:00,
2013-01-21 11:23:00,12.0,-99.9,-100.00,WNW,301,6.0,-999.0,-999,0.00,,,0.00,,2013-01-21 17:23:00,
2013-01-21 12:00:00,14.0,-99.9,-100.00,WNW,302,6.0,-999.0,-999,0.00,,,0.00,,2013-01-21 18:00:00,
2013-01-21 12:03:00,14.0,-99.9,-100.00,NW,306,10.0,-999.0,-999,0.00,,,0.00,,2013-01-21 18:03:00,
2013-01-21 12:12:00,14.0,-99.9,-100.00,NW,306,10.0,-999.0,-999,0.00,,,0.00,,2013-01-21 18:12:00,
2013-01-21 12:23:00,14.0,-99.9,-100.00,NW,306,10.0,-999.0,-999,0.00,,,0.00,,2013-01-21 18:23:00,
2013-01-21 12:33:00,14.0,-99.9,-100.00,WNW,302,6.0,-999.0,-999,0.00,,,0.00,,2013-01-21 18:33:00,
2013-01-21 12:43:00,14.0,-99.9,-100.00,WNW,302,6.0,-999.0,-999,0.00,,,0.00,,2013-01-21 18:43:00,
2013-01-21 12:53:00,14.0,-99.9,-100.00,WNW,302,6.0,-999.0,-999,0.00,,,0.00,,2013-01-21 18:53:00,
2013-01-21 15:04:00,14.0,-99.9,-100.00,WNW,301,7.0,-999.0,-999,-99.99,,,-99.99,,2013-01-21 21:04:00,
2013-01-21 15:13:00,14.0,-99.9,-100.00,WNW,301,7.0,-999.0,-999,-99.99,,,-99.99,,2013-01-21 21:13:00,
2013-01-21 15:23:00,14.0,-99.9,-100.00,WNW,301,7.0,-999.0,-999,-99.99,,,-99.99,,2013-01-21 21:23:00,
2013-01-21 15:33:00,14.0,-99.9,-100.00,West,263,5.0,-999.0,-999,0.00,,,0.00,,2013-01-21 21:33:00,
2013-01-21 15:43:00,14.0,-99.9,-100.00,West,263,5.0,-999.0,-999,0.00,,,0.00,,2013-01-21 21:43:00,
2013-01-21 15:54:00,14.0,-99.9,-100.00,West,263,5.0,-999.0,-999,0.00,,,0.00,,2013-01-21 21:54:00,
2013-01-21 16:04:00,14.0,-99.9,-100.00,West,274,5.0,-999.0,-999,0.00,,,0.00,,2013-01-21 22:04:00,
2013-01-21 16:13:00,14.0,-99.9,-100.00,West,274,5.0,-999.0,-999,0.00,,,0.00,,2013-01-21 22:13:00,
2013-01-21 16:24:00,14.0,-99.9,-100.00,West,274,5.0,-999.0,-999,0.00,,,0.00,,2013-01-21 22:24:00,
2013-01-21 16:33:00,14.0,-99.9,-100.00,West,281,6.0,-999.0,-999,0.00,,,-99.99,,2013-01-21 22:33:00,
2013-01-21 16:43:00,14.0,-99.9,-100.00,West,281,6.0,-999.0,-999,0.00,,,-99.99,,2013-01-21 22:43:00,
2013-01-21 16:53:00,14.0,-99.9,-100.00,West,281,6.0,-999.0,-999,0.00,,,-99.99,,2013-01-21 22:53:00,
2013-01-21 17:03:00,14.0,-99.9,-100.00,West,277,4.0,-999.0,-999,0.00,,,-99.99,,2013-01-21 23:03:00,
2013-01-21 17:13:00,14.0,-99.9,-100.00,West,277,4.0,-999.0,-999,0.00,,,-99.99,,2013-01-21 23:13:00,
2013-01-21 17:23:00,14.0,-99.9,-100.00,West,277,4.0,-999.0,-999,0.00,,,-99.99,,2013-01-21 23:23:00,
2013-01-21 17:33:00,13.0,-99.9,-100.00,West,280,4.0,-999.0,-999,0.00,,,0.00,,2013-01-21 23:33:00,
2013-01-21 17:43:00,13.0,-99.9,-100.00,West,280,4.0,-999.0,-999,0.00,,,0.00,,2013-01-21 23:43:00,
2013-01-21 17:53:00,13.0,-99.9,-100.00,West,280,4.0,-999.0,-999,0.00,,,0.00,,2013-01-21 23:53:00,
2013-01-21 18:03:00,13.0,-99.9,-100.00,West,281,4.0,-999.0,-999,0.00,,,0.00,,2013-01-22 00:03:00,
2013-01-21 18:12:00,13.0,-99.9,-100.00,West,281,4.0,-999.0,-999,0.00,,,0.00,,2013-01-22 00:12:00,
2013-01-21 18:23:00,13.0,-99.9,-100.00,West,281,4.0,-999.0,-999,0.00,,,0.00,,2013-01-22 00:23:00,
2013-01-21 18:33:00,13.0,-99.9,-100.00,WNW,285,3.0,-999.0,-999,0.00,,,0.00,,2013-01-22 00:33:00,
2013-01-21 18:43:00,13.0,-99.9,-100.00,WNW,285,3.0,-999.0,-999,0.00,,,0.00,,2013-01-22 00:43:00,
2013-01-21 18:53:00,13.0,-99.9,-100.00,WNW,285,3.0,-999.0,-999,0.00,,,0.00,,2013-01-22 00:53:00,
2013-01-21 19:03:00,13.0,-99.9,-100.00,West,270,3.0,-999.0,-999,0.00,,,0.00,,2013-01-22 01:03:00,
2013-01-21 19:13:00,13.0,-99.9,-100.00,West,270,3.0,-999.0,-999,0.00,,,0.00,,2013-01-22 01:13:00,
2013-01-21 19:23:00,13.0,-99.9,-100.00,West,270,3.0,-999.0,-999,0.00,,,0.00,,2013-01-22 01:23:00,
2013-01-21 19:33:00,13.0,-99.9,-100.00,West,264,5.0,-999.0,-999,0.00,,,0.00,,2013-01-22 01:33:00,
2013-01-21 19:43:00,13.0,-99.9,-100.00,West,264,5.0,-999.0,-999,0.00,,,0.00,,2013-01-22 01:43:00,
2013-01-21 19:53:00,13.0,-99.9,-100.00,West,264,5.0,-999.0,-999,0.00,,,0.00,,2013-01-22 01:53:00,
2013-01-21 20:03:00,13.0,-99.9,-100.00,West,265,2.0,-999.0,-999,0.00,,,0.00,,2013-01-22 02:03:00,
2013-01-21 20:12:00,13.0,-99.9,-100.00,West,265,2.0,-999.0,-999,0.00,,,0.00,,2013-01-22 02:12:00,
2013-01-21 20:23:00,13.0,-99.9,-100.00,West,265,2.0,-999.0,-999,0.00,,,0.00,,2013-01-22 02:23:00,
2013-01-21 20:33:00,13.0,-99.9,-100.00,WSW,258,3.0,-999.0,-999,0.00,,,0.00,,2013-01-22 02:33:00,
2013-01-21 20:43:00,13.0,-99.9,-100.00,WSW,258,3.0,-999.0,-999,0.00,,,0.00,,2013-01-22 02:43:00,
2013-01-21 20:53:00,13.0,-99.9,-100.00,WSW,258,3.0,-999.0,-999,0.00,,,0.00,,2013-01-22 02:53:00,
2013-01-21 21:03:00,13.0,-99.9,-100.00,West,265,3.0,-999.0,-999,0.00,,,0.00,,2013-01-22 03:03:00,
2013-01-21 21:12:00,13.0,-99.9,-100.00,West,265,3.0,-999.0,-999,0.00,,,0.00,,2013-01-22 03:12:00,
2013-01-21 21:23:00,13.0,-99.9,-100.00,West,265,3.0,-999.0,-999,0.00,,,0.00,,2013-01-22 03:23:00,
2013-01-21 21:33:00,13.0,-99.9,-100.00,West,275,4.0,-999.0,-999,0.00,,,0.00,,2013-01-22 03:33:00,
2013-01-21 21:43:00,13.0,-99.9,-100.00,West,275,4.0,-999.0,-999,0.00,,,0.00,,2013-01-22 03:43:00,
2013-01-21 21:53:00,13.0,-99.9,-100.00,West,275,4.0,-999.0,-999,0.00,,,0.00,,2013-01-22 03:53:00,
2013-01-21 22:03:00,13.0,-99.9,-100.00,WSW,255,3.0,-999.0,-999,0.00,,,0.00,,2013-01-22 04:03:00,
2013-01-21 22:12:00,13.0,-99.9,-100.00,WSW,255,3.0,-999.0,-999,0.00,,,0.00,,2013-01-22 04:12:00,
2013-01-21 22:22:00,13.0,-99.9,-100.00,WSW,255,3.0,-999.0,-999,0.00,,,0.00,,2013-01-22 04:22:00,
2013-01-21 22:33:00,13.0,-99.9,-100.00,West,265,2.0,-999.0,-999,0.00,,,0.00,,2013-01-22 04:33:00,
2013-01-21 22:43:00,13.0,-99.9,-100.00,West,265,2.0,-999.0,-999,0.00,,,0.00,,2013-01-22 04:43:00,
2013-01-21 22:53:00,13.0,-99.9,-100.00,West,265,2.0,-999.0,-999,0.00,,,0.00,,2013-01-22 04:53:00,
2013-01-21 23:05:00,12.0,-99.9,-100.00,West,271,2.0,-999.0,-999,0.00,,,0.00,,2013-01-22 05:05:00,
2013-01-21 23:12:00,12.0,-99.9,-100.00,West,271,2.0,-999.0,-999,0.00,,,0.00,,2013-01-22 05:12:00,
2013-01-21 23:23:00,12.0,-99.9,-100.00,West,271,2.0,-999.0,-999,0.00,,,0.00,,2013-01-22 05:23:00,
2013-01-21 23:33:00,11.0,-99.9,-100.00,West,276,1.0,-999.0,-999,0.00,,,0.00,,2013-01-22 05:33:00,
2013-01-21 23:43:00,11.0,-99.9,-100.00,West,276,1.0,-999.0,-999,0.00,,,0.00,,2013-01-22 05:43:00,
2013-01-21 23:53:00,11.0,-99.9,-100.00,West,276,1.0,-999.0,-999,0.00,,,0.00,,2013-01-22 05:53:00,